createdAt,value
2023-09-27T00:00:48.212Z,98462.69
2023-09-27T00:03:14.854Z,98463.28
2023-09-27T00:05:41.816Z,98451.19
2023-09-27T00:08:09.265Z,98446.22
2023-09-27T00:10:35.928Z,98447.91
2023-09-27T00:13:02.712Z,98453.69
2023-09-27T00:15:29.433Z,98449.13
2023-09-27T00:17:56.096Z,98447.25
2023-09-27T00:20:23.163Z,98431.22
2023-09-27T00:22:49.878Z,98437.22
2023-09-27T00:25:17.140Z,98434.53
2023-09-27T00:27:44.140Z,98424.84
2023-09-27T00:30:14.656Z,98453.44
2023-09-27T00:32:42.449Z,98441.59
2023-09-27T00:35:15.906Z,98439.94
2023-09-27T00:37:42.677Z,98434.53
2023-09-27T00:40:13.086Z,98443.25
2023-09-27T00:42:39.917Z,98457.81
2023-09-27T00:45:07.858Z,98466.75
2023-09-27T00:47:35.045Z,98468.63
2023-09-27T00:50:02.314Z,98462.63
2023-09-27T00:52:29.065Z,98449.13
2023-09-27T00:54:58.004Z,98461.94
2023-09-27T00:57:24.791Z,98467.13
2023-09-27T00:59:52.003Z,98466.06
2023-09-27T01:02:18.580Z,98475.25
2023-09-27T01:04:46.124Z,98468.56
2023-09-27T01:07:15.113Z,98467.75
2023-09-27T01:09:41.743Z,98473.59
2023-09-27T01:12:08.956Z,98467.34
2023-09-27T01:14:36.192Z,98462.78
2023-09-27T01:17:12.392Z,98455.56
2023-09-27T01:19:42.044Z,98458.19
2023-09-27T01:22:08.593Z,98448.22
2023-09-27T01:24:38.716Z,98446.09
2023-09-27T01:27:10.047Z,98426.13
2023-09-27T01:29:36.634Z,98419.38
2023-09-27T01:32:03.651Z,98417.50
2023-09-27T01:34:30.319Z,98413.34
2023-09-27T01:36:57.121Z,98422.28
2023-09-27T01:39:25.399Z,98420.88
2023-09-27T01:41:52.033Z,98421.91
2023-09-27T01:44:19.673Z,98444.59
2023-09-27T01:46:46.338Z,98448.34
2023-09-27T01:49:12.955Z,98449.38
2023-09-27T01:51:40.681Z,98443.38
2023-09-27T01:54:07.311Z,98433.00
2023-09-27T01:56:33.906Z,98427.59
2023-09-27T01:59:00.542Z,98424.91
2023-09-27T02:01:27.183Z,98441.13
2023-09-27T02:03:53.848Z,98442.59
2023-09-27T02:06:20.485Z,98450.31
2023-09-27T02:08:47.529Z,98436.50
2023-09-27T02:11:15.913Z,98456.13
2023-09-27T02:13:42.531Z,98462.19
2023-09-27T02:16:09.160Z,98453.25
2023-09-27T02:18:35.806Z,98455.13
2023-09-27T02:21:02.872Z,98442.25
2023-09-27T02:23:30.050Z,98457.22
2023-09-27T02:25:57.988Z,98461.81
2023-09-27T02:28:24.943Z,98462.84
2023-09-27T02:30:54.768Z,98454.78
2023-09-27T02:33:21.853Z,98462.25
2023-09-27T02:35:48.827Z,98430.34
2023-09-27T02:38:15.517Z,98446.25
2023-09-27T02:40:43.330Z,98435.66
2023-09-27T02:43:10.010Z,98431.09
2023-09-27T02:45:36.619Z,98419.47
2023-09-27T02:48:05.088Z,98426.94
2023-09-27T02:50:31.960Z,98425.31
2023-09-27T02:52:58.652Z,98423.66
2023-09-27T02:55:26.888Z,98417.63
2023-09-27T02:57:55.996Z,98421.97
2023-09-27T03:00:23.099Z,98415.94
2023-09-27T03:02:49.988Z,98424.88
2023-09-27T03:05:17.021Z,98427.00
2023-09-27T03:07:46.375Z,98431.56
2023-09-27T03:10:13.166Z,98431.56
2023-09-27T03:12:40.788Z,98434.84
2023-09-27T03:15:12.721Z,98442.38
2023-09-27T03:17:44.297Z,98449.84
2023-09-27T03:20:17.686Z,98445.31
2023-09-27T03:22:44.800Z,98451.94
2023-09-27T03:25:11.570Z,98451.75
2023-09-27T03:27:38.333Z,98451.16
2023-09-27T03:30:06.991Z,98463.00
2023-09-27T03:32:35.967Z,98465.06
2023-09-27T03:35:02.847Z,98466.13
2023-09-27T03:37:29.668Z,98466.34
2023-09-27T03:39:56.966Z,98474.44
2023-09-27T03:42:24.581Z,98474.63
2023-09-27T03:44:51.520Z,98478.41
2023-09-27T03:47:18.487Z,98485.69
2023-09-27T03:49:45.174Z,98488.38
2023-09-27T03:52:12.342Z,98493.97
2023-09-27T03:54:38.981Z,98490.47
2023-09-27T03:57:06.001Z,98497.94
2023-09-27T03:59:32.887Z,98489.28
2023-09-27T04:02:00.627Z,98493.81
2023-09-27T04:04:28.463Z,98503.78
2023-09-27T04:06:55.072Z,98502.16
2023-09-27T04:09:22.216Z,98505.44
2023-09-27T04:11:48.768Z,98499.44
2023-09-27T04:14:15.374Z,98507.56
2023-09-27T04:16:42.125Z,98516.03
2023-09-27T04:19:09.630Z,98516.63
2023-09-27T04:21:36.300Z,98529.06
2023-09-27T04:24:05.064Z,98525.75
2023-09-27T04:26:31.718Z,98522.22
2023-09-27T04:28:58.353Z,98509.38
2023-09-27T04:31:25.521Z,98504.19
2023-09-27T04:33:52.532Z,98501.47
2023-09-27T04:36:19.294Z,98501.53
2023-09-27T04:38:46.674Z,98513.56
2023-09-27T04:41:17.095Z,98511.06
2023-09-27T04:43:44.707Z,98513.16
2023-09-27T04:46:19.125Z,98510.25
2023-09-27T04:48:46.126Z,98489.75
2023-09-27T04:51:12.669Z,98505.28
2023-09-27T04:53:39.568Z,98509.03
2023-09-27T04:56:12.552Z,98498.84
2023-09-27T04:58:40.590Z,98505.72
2023-09-27T05:01:07.806Z,98494.91
2023-09-27T05:03:34.689Z,98504.88
2023-09-27T05:06:01.389Z,98503.22
2023-09-27T05:08:28.172Z,98502.38
2023-09-27T05:10:55.920Z,98509.63
2023-09-27T05:13:23.235Z,98506.47
2023-09-27T05:15:50.397Z,98504.78
2023-09-27T05:18:17.144Z,98487.72
2023-09-27T05:20:45.231Z,98476.97
2023-09-27T05:23:12.665Z,98481.06
2023-09-27T05:25:39.557Z,98482.34
2023-09-27T05:28:06.419Z,98479.88
2023-09-27T05:30:33.024Z,98490.84
2023-09-27T05:32:59.593Z,98496.69
2023-09-27T05:35:26.230Z,98514.34
2023-09-27T05:37:52.831Z,98516.81
2023-09-27T05:40:19.474Z,98520.16
2023-09-27T05:42:46.128Z,98524.72
2023-09-27T05:45:13.223Z,98529.06
2023-09-27T05:47:40.695Z,98528.44
2023-09-27T05:50:14.949Z,98530.56
2023-09-27T05:52:45.974Z,98527.22
2023-09-27T05:55:13.684Z,98520.78
2023-09-27T05:57:40.240Z,98517.06
2023-09-27T06:00:20.230Z,98520.16
2023-09-27T06:02:48.397Z,98520.75
2023-09-27T06:05:15.167Z,98517.00
2023-09-27T06:07:41.827Z,98523.84
2023-09-27T06:10:11.023Z,98519.28
2023-09-27T06:12:38.011Z,98526.31
2023-09-27T06:15:05.124Z,98526.94
2023-09-27T06:17:32.122Z,98522.97
2023-09-27T06:19:58.976Z,98525.28
2023-09-27T06:22:25.562Z,98512.22
2023-09-27T06:24:52.827Z,98525.44
2023-09-27T06:27:19.588Z,98526.66
2023-09-27T06:29:46.343Z,98530.78
2023-09-27T06:32:12.973Z,98541.13
2023-09-27T06:34:39.530Z,98539.19
2023-09-27T06:37:08.446Z,98538.53
2023-09-27T06:39:35.363Z,98539.91
2023-09-27T06:42:01.971Z,98538.81
2023-09-27T06:44:29.893Z,98535.22
2023-09-27T06:46:56.459Z,98532.00
2023-09-27T06:49:22.978Z,98529.88
2023-09-27T06:51:49.684Z,98533.56
2023-09-27T06:54:16.235Z,98536.28
2023-09-27T06:56:43.646Z,98541.41
2023-09-27T06:59:10.713Z,98537.88
2023-09-27T07:01:39.341Z,98535.47
2023-09-27T07:04:07.011Z,98532.91
2023-09-27T07:06:33.731Z,98524.25
2023-09-27T07:09:00.268Z,98525.59
2023-09-27T07:11:26.881Z,98526.59
2023-09-27T07:13:56.991Z,98533.34
2023-09-27T07:16:27.637Z,98544.63
2023-09-27T07:18:54.932Z,98532.31
2023-09-27T07:21:21.665Z,98540.38
2023-09-27T07:23:50.459Z,98536.16
2023-09-27T07:26:17.486Z,98543.59
2023-09-27T07:28:44.816Z,98530.41
2023-09-27T07:31:13.540Z,98525.59
2023-09-27T07:33:40.130Z,98518.66
2023-09-27T07:36:09.794Z,98517.59
2023-09-27T07:38:40.738Z,98524.19
2023-09-27T07:41:09.899Z,98527.88
2023-09-27T07:43:37.396Z,98525.94
2023-09-27T07:46:08.015Z,98534.41
2023-09-27T07:48:39.102Z,98528.16
2023-09-27T07:51:18.432Z,98517.34
2023-09-27T07:53:45.051Z,98515.22
2023-09-27T07:56:20.911Z,98503.66
2023-09-27T07:58:50.316Z,98511.09
2023-09-27T08:01:21.767Z,98508.16
2023-09-27T08:03:54.914Z,98509.06
2023-09-27T08:06:22.192Z,98507.13
2023-09-27T08:08:53.134Z,98497.59
2023-09-27T08:11:20.044Z,98509.00
2023-09-27T08:13:46.710Z,98505.25
2023-09-27T08:16:13.293Z,98506.69
2023-09-27T08:18:40.170Z,98492.53
2023-09-27T08:21:06.721Z,98493.75
2023-09-27T08:23:33.601Z,98489.03
2023-09-27T08:26:00.290Z,98483.53
2023-09-27T08:28:26.887Z,98476.59
2023-09-27T08:30:58.376Z,98475.53
2023-09-27T08:33:25.071Z,98463.88
2023-09-27T08:35:55.043Z,98462.78
2023-09-27T08:38:23.202Z,98451.97
2023-09-27T08:40:49.998Z,98436.31
2023-09-27T08:43:16.852Z,98445.75
2023-09-27T08:45:46.551Z,98448.56
2023-09-27T08:48:17.763Z,98452.47
2023-09-27T08:50:44.912Z,98413.06
2023-09-27T08:53:11.921Z,98444.22
2023-09-27T08:55:41.829Z,98448.56
2023-09-27T08:58:10.828Z,98463.69
2023-09-27T09:00:37.653Z,98469.31
2023-09-27T09:03:07.724Z,98466.22
2023-09-27T09:05:34.485Z,98461.59
2023-09-27T09:08:02.674Z,98465.97
2023-09-27T09:10:29.944Z,98470.22
2023-09-27T09:12:57.040Z,98463.25
2023-09-27T09:15:42.399Z,98461.63
2023-09-27T09:18:16.123Z,98466.94
2023-09-27T09:20:50.557Z,98454.44
2023-09-27T09:23:35.367Z,98455.38
2023-09-27T09:26:04.644Z,98468.09
2023-09-27T09:28:31.255Z,98463.03
2023-09-27T09:30:57.873Z,98466.22
2023-09-27T09:33:29.705Z,98460.56
2023-09-27T09:35:57.552Z,98467.75
2023-09-27T09:38:30.657Z,98469.66
2023-09-27T09:41:02.422Z,98461.53
2023-09-27T09:43:38.543Z,98469.66
2023-09-27T09:46:09.634Z,98465.03
2023-09-27T09:48:37.503Z,98448.53
2023-09-27T09:51:08.783Z,98458.00
2023-09-27T09:53:40.612Z,98456.69
2023-09-27T09:56:30.681Z,98454.44
2023-09-27T09:59:04.941Z,98445.97
2023-09-27T10:01:40.220Z,98442.00
2023-09-27T10:04:08.537Z,98446.78
2023-09-27T10:06:48.980Z,98449.22
2023-09-27T10:09:16.702Z,98441.53
2023-09-27T10:11:48.776Z,98441.75
2023-09-27T10:14:17.280Z,98443.91
2023-09-27T10:16:44.507Z,98431.03
2023-09-27T10:19:11.759Z,98410.72
2023-09-27T10:22:02.244Z,98437.31
2023-09-27T10:24:29.346Z,98442.97
2023-09-27T10:26:55.908Z,98439.91
2023-09-27T10:29:23.621Z,98429.66
2023-09-27T10:31:59.292Z,98438.25
2023-09-27T10:34:28.962Z,98438.16
2023-09-27T10:37:15.217Z,98435.91
2023-09-27T10:40:19.233Z,98433.06
2023-09-27T10:42:46.576Z,98432.47
2023-09-27T10:45:13.813Z,98422.44
2023-09-27T10:47:41.233Z,98418.44
2023-09-27T10:50:08.228Z,98413.75
2023-09-27T10:52:34.934Z,98417.63
2023-09-27T10:55:12.553Z,98399.38
2023-09-27T10:57:41.127Z,98420.09
2023-09-27T11:00:11.935Z,98408.78
2023-09-27T11:02:39.080Z,98419.16
2023-09-27T11:05:06.877Z,98415.25
2023-09-27T11:07:47.959Z,98415.41
2023-09-27T11:10:33.272Z,98416.44
2023-09-27T11:13:13.414Z,98416.66
2023-09-27T11:15:41.085Z,98418.34
2023-09-27T11:18:14.329Z,98406.66
2023-09-27T11:20:41.377Z,98413.84
2023-09-27T11:23:08.226Z,98404.41
2023-09-27T11:25:36.362Z,98414.66
2023-09-27T11:28:03.750Z,98421.59
2023-09-27T11:30:34.581Z,98420.91
2023-09-27T11:33:06.545Z,98423.88
2023-09-27T11:35:33.535Z,98419.41
2023-09-27T11:38:14.829Z,98426.31
2023-09-27T11:40:43.160Z,98425.63
2023-09-27T11:43:12.237Z,98415.69
2023-09-27T11:45:46.542Z,98413.59
2023-09-27T11:48:13.494Z,98412.75
2023-09-27T11:50:40.584Z,98409.22
2023-09-27T11:53:07.244Z,98417.00
2023-09-27T11:55:33.888Z,98414.44
2023-09-27T11:58:00.855Z,98395.31
2023-09-27T12:00:27.594Z,98396.84
2023-09-27T12:02:57.754Z,98402.25
2023-09-27T12:05:25.489Z,98400.03
2023-09-27T12:07:52.576Z,98396.50
2023-09-27T12:10:19.249Z,98389.75
2023-09-27T12:12:45.833Z,98390.84
2023-09-27T12:15:12.410Z,98383.75
2023-09-27T12:17:39.267Z,98381.25
2023-09-27T12:20:09.269Z,98382.56
2023-09-27T12:22:43.554Z,98368.91
2023-09-27T12:25:11.909Z,98371.72
2023-09-27T12:27:38.450Z,98365.72
2023-09-27T12:30:06.442Z,98355.09
2023-09-27T12:32:33.164Z,98352.84
2023-09-27T12:35:02.003Z,98354.78
2023-09-27T12:37:28.691Z,98354.53
2023-09-27T12:39:55.196Z,98351.44
2023-09-27T12:42:21.836Z,98355.13
2023-09-27T12:44:49.785Z,98354.53
2023-09-27T12:47:16.547Z,98356.22
2023-09-27T12:49:43.258Z,98352.31
2023-09-27T12:52:09.804Z,98351.84
2023-09-27T12:54:36.374Z,98347.00
2023-09-27T12:57:03.833Z,98340.50
2023-09-27T12:59:31.465Z,98330.72
2023-09-27T13:01:58.092Z,98329.66
2023-09-27T13:04:24.769Z,98324.13
2023-09-27T13:06:51.741Z,98330.22
2023-09-27T13:09:18.752Z,98325.63
2023-09-27T13:11:45.469Z,98336.00
2023-09-27T13:14:12.336Z,98320.22
2023-09-27T13:16:38.971Z,98330.84
2023-09-27T13:19:05.661Z,98330.84
2023-09-27T13:21:32.153Z,98329.28
2023-09-27T13:23:58.676Z,98320.66
2023-09-27T13:26:27.006Z,98314.88
2023-09-27T13:28:53.948Z,98316.31
2023-09-27T13:31:20.934Z,98317.47
2023-09-27T13:33:58.863Z,98309.59
2023-09-27T13:36:30.520Z,98305.00
2023-09-27T13:38:59.758Z,98313.34
2023-09-27T13:41:29.258Z,98305.00
2023-09-27T13:43:56.146Z,98298.81
2023-09-27T13:46:23.167Z,98292.91
2023-09-27T13:48:49.786Z,98285.03
2023-09-27T13:51:17.015Z,98286.44
2023-09-27T13:53:44.779Z,98278.53
2023-09-27T13:56:11.412Z,98270.66
2023-09-27T13:58:40.418Z,98273.94
2023-09-27T14:01:07.191Z,98271.69
2023-09-27T14:03:33.871Z,98263.56
2023-09-27T14:06:01.068Z,98263.81
2023-09-27T14:08:27.792Z,98256.97
2023-09-27T14:10:54.401Z,98253.44
2023-09-27T14:13:20.947Z,98253.69
2023-09-27T14:15:47.649Z,98252.28
2023-09-27T14:18:14.298Z,98249.56
2023-09-27T14:20:41.072Z,98245.78
2023-09-27T14:23:07.637Z,98245.78
2023-09-27T14:25:34.306Z,98245.53
2023-09-27T14:28:01.091Z,98249.06
2023-09-27T14:30:27.750Z,98236.56
2023-09-27T14:32:54.553Z,98245.88
2023-09-27T14:35:22.010Z,98243.75
2023-09-27T14:37:48.736Z,98239.63
2023-09-27T14:40:15.691Z,98241.84
2023-09-27T14:42:45.064Z,98235.38
2023-09-27T14:45:28.344Z,98238.31
2023-09-27T14:47:57.936Z,98225.44
2023-09-27T14:50:24.639Z,98232.59
2023-09-27T14:52:51.229Z,98224.22
2023-09-27T14:55:19.042Z,98219.72
2023-09-27T14:57:45.827Z,98212.53
2023-09-27T15:00:15.870Z,98218.88
2023-09-27T15:02:44.062Z,98222.66
2023-09-27T15:05:13.235Z,98222.41
2023-09-27T15:07:39.887Z,98227.47
2023-09-27T15:10:07.860Z,98217.41
2023-09-27T15:12:34.604Z,98220.97
2023-09-27T15:15:01.438Z,98219.47
2023-09-27T15:17:28.093Z,98223.75
2023-09-27T15:19:57.105Z,98224.47
2023-09-27T15:22:23.741Z,98219.53
2023-09-27T15:24:50.293Z,98220.63
2023-09-27T15:27:17.816Z,98215.91
2023-09-27T15:29:44.365Z,98219.19
2023-09-27T15:32:11.073Z,98220.25
2023-09-27T15:34:38.046Z,98216.38
2023-09-27T15:37:04.598Z,98218.25
2023-09-27T15:39:31.136Z,98207.69
2023-09-27T15:41:57.729Z,98213.31
2023-09-27T15:44:24.746Z,98202.97
2023-09-27T15:46:52.519Z,98200.25
2023-09-27T15:49:21.485Z,98200.72
2023-09-27T15:51:48.074Z,98199.06
2023-09-27T15:54:18.953Z,98200.72
2023-09-27T15:56:46.189Z,98198.50
2023-09-27T15:59:12.839Z,98197.94
2023-09-27T16:01:39.527Z,98196.84
2023-09-27T16:04:08.392Z,98194.63
2023-09-27T16:06:35.211Z,98191.91
2023-09-27T16:09:06.240Z,98188.38
2023-09-27T16:11:32.874Z,98184.16
2023-09-27T16:13:59.604Z,98194.28
2023-09-27T16:16:26.495Z,98195.94
2023-09-27T16:18:53.153Z,98194.03
2023-09-27T16:21:20.419Z,98191.91
2023-09-27T16:23:46.951Z,98195.09
2023-09-27T16:26:13.531Z,98197.81
2023-09-27T16:28:41.059Z,98194.53
2023-09-27T16:31:11.862Z,98188.53
2023-09-27T16:33:39.175Z,98189.59
2023-09-27T16:36:06.302Z,98190.41
2023-09-27T16:38:32.869Z,98188.75
2023-09-27T16:41:00.610Z,98195.59
2023-09-27T16:43:27.583Z,98185.81
2023-09-27T16:45:54.224Z,98180.41
2023-09-27T16:48:22.270Z,98185.81
2023-09-27T16:50:48.934Z,98177.91
2023-09-27T16:53:15.481Z,98175.47
2023-09-27T16:55:44.701Z,98176.88
2023-09-27T16:58:11.560Z,98161.91
2023-09-27T17:00:42.951Z,98164.63
2023-09-27T17:03:10.191Z,98168.13
2023-09-27T17:05:36.846Z,98161.91
2023-09-27T17:08:03.619Z,98166.69
2023-09-27T17:10:30.536Z,98150.91
2023-09-27T17:12:57.337Z,98158.00
2023-09-27T17:15:24.239Z,98156.59
2023-09-27T17:17:50.854Z,98153.88
2023-09-27T17:20:17.754Z,98150.34
2023-09-27T17:22:44.466Z,98144.91
2023-09-27T17:25:12.148Z,98134.91
2023-09-27T17:27:38.789Z,98136.78
2023-09-27T17:30:06.529Z,98132.19
2023-09-27T17:32:33.315Z,98137.63
2023-09-27T17:35:00.374Z,98135.13
2023-09-27T17:37:27.078Z,98142.44
2023-09-27T17:39:53.675Z,98141.38
2023-09-27T17:42:20.433Z,98136.22
2023-09-27T17:44:49.083Z,98144.34
2023-09-27T17:47:15.912Z,98128.66
2023-09-27T17:49:42.559Z,98137.84
2023-09-27T17:52:09.216Z,98142.22
2023-09-27T17:54:35.759Z,98131.84
2023-09-27T17:57:02.286Z,98134.56
2023-09-27T17:59:29.165Z,98128.56
2023-09-27T18:01:56.068Z,98136.44
2023-09-27T18:04:27.081Z,98134.56
2023-09-27T18:06:53.807Z,98131.84
2023-09-27T18:09:20.399Z,98134.78
2023-09-27T18:11:46.923Z,98123.16
2023-09-27T18:14:13.469Z,98128.56
2023-09-27T18:16:40.213Z,98128.56
2023-09-27T18:19:06.856Z,98134.44
2023-09-27T18:21:33.387Z,98135.53
2023-09-27T18:23:59.982Z,98136.59
2023-09-27T18:26:27.474Z,98138.25
2023-09-27T18:28:55.315Z,98142.56
2023-09-27T18:31:22.114Z,98149.06
2023-09-27T18:33:48.862Z,98158.25
2023-09-27T18:36:15.860Z,98157.22
2023-09-27T18:38:42.416Z,98155.81
2023-09-27T18:41:08.992Z,98157.69
2023-09-27T18:43:35.661Z,98155.09
2023-09-27T18:46:03.341Z,98161.34
2023-09-27T18:48:30.244Z,98157.56
2023-09-27T18:50:57.921Z,98164.06
2023-09-27T18:53:24.675Z,98163.22
2023-09-27T18:55:51.368Z,98160.75
2023-09-27T18:58:18.228Z,98155.34
2023-09-27T19:00:45.410Z,98161.84
2023-09-27T19:03:13.730Z,98142.75
2023-09-27T19:05:40.855Z,98151.47
2023-09-27T19:08:07.903Z,98152.31
2023-09-27T19:10:34.810Z,98155.34
2023-09-27T19:13:01.451Z,98153.56
2023-09-27T19:15:28.052Z,98153.00
2023-09-27T19:17:57.863Z,98149.94
2023-09-27T19:20:25.237Z,98156.41
2023-09-27T19:22:53.855Z,98158.53
2023-09-27T19:25:23.619Z,98156.66
2023-09-27T19:27:51.054Z,98148.75
2023-09-27T19:30:18.224Z,98153.59
2023-09-27T19:32:45.519Z,98139.13
2023-09-27T19:35:18.470Z,98135.47
2023-09-27T19:37:45.109Z,98134.28
2023-09-27T19:40:12.994Z,98126.16
2023-09-27T19:42:42.047Z,98126.44
2023-09-27T19:45:09.458Z,98119.34
2023-09-27T19:47:36.778Z,98122.41
2023-09-27T19:50:05.168Z,98128.41
2023-09-27T19:52:31.909Z,98127.25
2023-09-27T19:54:58.518Z,98100.28
2023-09-27T19:57:25.115Z,98131.00
2023-09-27T19:59:51.703Z,98135.94
2023-09-27T20:02:18.370Z,98137.47
2023-09-27T20:04:44.998Z,98131.84
2023-09-27T20:07:11.645Z,98133.16
2023-09-27T20:09:38.568Z,98133.94
2023-09-27T20:12:05.252Z,98129.34
2023-09-27T20:14:32.407Z,98136.56
2023-09-27T20:16:59.305Z,98125.16
2023-09-27T20:19:25.989Z,98136.91
2023-09-27T20:21:56.242Z,98130.31
2023-09-27T20:24:27.191Z,98126.69
2023-09-27T20:26:53.761Z,98134.53
2023-09-27T20:29:20.885Z,98130.44
2023-09-27T20:31:47.553Z,98118.78
2023-09-27T20:34:14.191Z,98127.16
2023-09-27T20:36:41.660Z,98113.69
2023-09-27T20:39:09.671Z,98121.72
2023-09-27T20:41:38.789Z,98113.63
2023-09-27T20:44:06.758Z,98116.53
2023-09-27T20:46:33.681Z,98111.34
2023-09-27T20:49:00.828Z,98115.94
2023-09-27T20:51:27.429Z,98116.75
2023-09-27T20:53:55.113Z,98115.94
2023-09-27T20:56:21.993Z,98105.34
2023-09-27T20:58:49.338Z,98109.94
2023-09-27T21:01:27.382Z,98090.38
2023-09-27T21:03:54.379Z,98095.59
2023-09-27T21:06:30.461Z,98081.47
2023-09-27T21:08:57.945Z,98091.81
2023-09-27T21:11:27.818Z,98081.59
2023-09-27T21:13:58.265Z,98091.81
2023-09-27T21:16:26.043Z,98087.69
2023-09-27T21:18:54.000Z,98083.00
2023-09-27T21:21:21.317Z,98087.34
2023-09-27T21:23:48.137Z,98088.75
2023-09-27T21:26:14.719Z,98078.16
2023-09-27T21:28:41.677Z,98082.53
2023-09-27T21:31:09.118Z,98079.72
2023-09-27T21:33:36.912Z,98078.63
2023-09-27T21:36:04.185Z,98078.88
2023-09-27T21:38:31.702Z,98066.31
2023-09-27T21:40:58.776Z,98074.53
2023-09-27T21:43:26.034Z,98062.28
2023-09-27T21:45:53.011Z,98074.16
2023-09-27T21:48:19.973Z,98070.63
2023-09-27T21:50:47.712Z,98065.47
2023-09-27T21:53:14.295Z,98070.88
2023-09-27T21:55:40.918Z,98062.78
2023-09-27T21:58:07.593Z,98065.47
2023-09-27T22:00:35.862Z,98071.47
2023-09-27T22:03:04.139Z,98071.72
2023-09-27T22:05:33.065Z,98070.06
2023-09-27T22:08:01.124Z,98073.81
2023-09-27T22:10:35.414Z,98078.19
2023-09-27T22:13:22.098Z,98075.38
2023-09-27T22:15:53.905Z,98076.16
2023-09-27T22:18:21.697Z,98077.81
2023-09-27T22:20:48.883Z,98074.28
2023-09-27T22:23:32.139Z,98073.25
2023-09-27T22:26:05.983Z,98056.44
2023-09-27T22:28:32.638Z,98054.78
2023-09-27T22:31:02.155Z,98043.13
2023-09-27T22:33:34.055Z,98037.81
2023-09-27T22:36:00.993Z,98039.84
2023-09-27T22:38:31.943Z,98034.91
2023-09-27T22:40:58.826Z,98041.25
2023-09-27T22:43:25.448Z,98046.06
2023-09-27T22:45:53.575Z,98031.13
2023-09-27T22:48:20.769Z,98035.72
2023-09-27T22:50:48.965Z,98025.59
2023-09-27T22:53:16.840Z,98028.66
2023-09-27T22:55:51.623Z,98027.00
2023-09-27T22:58:19.361Z,98033.25
2023-09-27T23:00:47.361Z,98024.78
2023-09-27T23:03:16.874Z,98023.72
2023-09-27T23:05:51.006Z,98019.13
2023-09-27T23:08:26.988Z,98015.59
2023-09-27T23:10:57.962Z,98015.50
2023-09-27T23:13:31.799Z,98011.72
2023-09-27T23:16:00.429Z,98011.38
2023-09-27T23:18:30.151Z,98011.16
2023-09-27T23:21:17.005Z,98001.28
2023-09-27T23:23:59.306Z,98009.50
2023-09-27T23:26:53.485Z,97994.09
2023-09-27T23:29:30.352Z,97999.97
2023-09-27T23:31:58.397Z,97998.09
2023-09-27T23:34:29.020Z,98004.81
2023-09-27T23:37:15.508Z,98004.81
2023-09-27T23:39:43.549Z,97996.91
2023-09-27T23:42:27.034Z,97995.88
2023-09-27T23:45:12.283Z,97992.34
2023-09-27T23:47:50.900Z,97983.63
2023-09-27T23:50:18.724Z,97978.69
2023-09-27T23:52:46.929Z,97973.28
2023-09-27T23:55:17.999Z,97965.53
2023-09-27T23:57:48.236Z,97989.28
